sensor_id;sensor_type;location;lat;lon;timestamp;pressure;altitude;pressure_sealevel;temperature;humidity
69219;BME280;56232;53.384;-2.732;2023-02-17T00:01:50;101083.38;;;12.23;43.64
69219;BME280;56232;53.384;-2.732;2023-02-17T00:04:16;101079.59;;;12.26;43.55
69219;BME280;56232;53.384;-2.732;2023-02-17T00:06:43;101081.06;;;12.26;43.91
69219;BME280;56232;53.384;-2.732;2023-02-17T00:09:07;101087.03;;;12.76;43.44
69219;BME280;56232;53.384;-2.732;2023-02-17T00:11:33;101086.29;;;11.58;43.58
69219;BME280;56232;53.384;-2.732;2023-02-17T00:13:59;101093.68;;;12.72;44.06
69219;BME280;56232;53.384;-2.732;2023-02-17T00:16:26;101087.28;;;12.69;43.50
69219;BME280;56232;53.384;-2.732;2023-02-17T00:18:52;101086.45;;;12.08;43.47
69219;BME280;56232;53.384;-2.732;2023-02-17T00:21:17;101086.75;;;12.05;43.76
69219;BME280;56232;53.384;-2.732;2023-02-17T00:23:42;101084.12;;;12.09;43.60
69219;BME280;56232;53.384;-2.732;2023-02-17T00:26:07;101089.97;;;12.02;43.71
69219;BME280;56232;53.384;-2.732;2023-02-17T00:28:33;101082.77;;;12.49;43.54
69219;BME280;56232;53.384;-2.732;2023-02-17T00:30:58;101084.04;;;12.43;43.82
69219;BME280;56232;53.384;-2.732;2023-02-17T00:33:24;101088.98;;;11.99;43.40
69219;BME280;56232;53.384;-2.732;2023-02-17T00:35:50;101094.08;;;11.37;43.52
69219;BME280;56232;53.384;-2.732;2023-02-17T00:38:15;101097.85;;;12.53;43.69
69219;BME280;56232;53.384;-2.732;2023-02-17T00:40:41;101094.84;;;12.60;43.79
69219;BME280;56232;53.384;-2.732;2023-02-17T00:43:06;101097.65;;;12.59;43.33
69219;BME280;56232;53.384;-2.732;2023-02-17T00:45:32;101098.16;;;12.43;43.55
69219;BME280;56232;53.384;-2.732;2023-02-17T00:47:58;101104.14;;;12.28;43.68
69219;BME280;56232;53.384;-2.732;2023-02-17T00:50:23;101105.76;;;11.29;43.62
69219;BME280;56232;53.384;-2.732;2023-02-17T00:52:49;101104.96;;;12.37;43.81
69219;BME280;56232;53.384;-2.732;2023-02-17T00:55:15;101100.85;;;11.28;43.88
69219;BME280;56232;53.384;-2.732;2023-02-17T00:57:40;101098.28;;;12.34;43.39
69219;BME280;56232;53.384;-2.732;2023-02-17T01:00:07;101101.17;;;12.22;43.48
69219;BME280;56232;53.384;-2.732;2023-02-17T01:02:37;101089.51;;;11.08;43.68
69219;BME280;56232;53.384;-2.732;2023-02-17T01:04:57;101085.06;;;12.19;43.83
69219;BME280;56232;53.384;-2.732;2023-02-17T01:07:23;101101.63;;;12.34;43.65
69219;BME280;56232;53.384;-2.732;2023-02-17T01:09:48;101089.15;;;12.23;43.46
69219;BME280;56232;53.384;-2.732;2023-02-17T01:12:14;101089.45;;;12.03;43.38
69219;BME280;56232;53.384;-2.732;2023-02-17T01:14:40;101095.87;;;11.84;44.01
69219;BME280;56232;53.384;-2.732;2023-02-17T01:17:05;101085.89;;;11.90;44.08
69219;BME280;56232;53.384;-2.732;2023-02-17T01:19:31;101088.94;;;10.97;44.03
69219;BME280;56232;53.384;-2.732;2023-02-17T01:21:57;101087.92;;;11.95;43.56
69219;BME280;56232;53.384;-2.732;2023-02-17T01:24:22;101087.90;;;11.76;43.92
69219;BME280;56232;53.384;-2.732;2023-02-17T01:26:48;101085.34;;;12.24;43.86
69219;BME280;56232;53.384;-2.732;2023-02-17T01:29:14;101080.36;;;11.75;43.94
69219;BME280;56232;53.384;-2.732;2023-02-17T01:31:39;101092.22;;;11.73;44.02
69219;BME280;56232;53.384;-2.732;2023-02-17T01:34:05;101085.25;;;12.28;43.80
69219;BME280;56232;53.384;-2.732;2023-02-17T01:36:31;101073.49;;;11.79;44.16
69219;BME280;56232;53.384;-2.732;2023-02-17T01:38:56;101074.18;;;11.91;44.07
69219;BME280;56232;53.384;-2.732;2023-02-17T01:41:24;101070.12;;;12.24;43.90
69219;BME280;56232;53.384;-2.732;2023-02-17T01:46:13;101077.88;;;11.31;43.70
69219;BME280;56232;53.384;-2.732;2023-02-17T01:48:42;101082.61;;;12.10;43.65
69219;BME280;56232;53.384;-2.732;2023-02-17T01:51:08;101084.59;;;12.05;44.30
69219;BME280;56232;53.384;-2.732;2023-02-17T01:53:34;101083.17;;;12.22;43.78
69219;BME280;56232;53.384;-2.732;2023-02-17T01:55:56;101076.82;;;11.82;44.01
69219;BME280;56232;53.384;-2.732;2023-02-17T01:58:22;101083.68;;;11.98;44.11
69219;BME280;56232;53.384;-2.732;2023-02-17T02:00:47;101078.31;;;11.57;43.78
69219;BME280;56232;53.384;-2.732;2023-02-17T02:03:13;101085.43;;;11.56;43.44
69219;BME280;56232;53.384;-2.732;2023-02-17T02:05:40;101087.03;;;11.98;43.35
69219;BME280;56232;53.384;-2.732;2023-02-17T02:08:04;101083.47;;;11.99;43.55
69219;BME280;56232;53.384;-2.732;2023-02-17T02:10:30;101092.51;;;12.04;43.21
69219;BME280;56232;53.384;-2.732;2023-02-17T02:12:55;101097.59;;;12.28;43.43
69219;BME280;56232;53.384;-2.732;2023-02-17T02:15:22;101084.24;;;11.62;43.57
69219;BME280;56232;53.384;-2.732;2023-02-17T02:18:00;101087.75;;;11.65;43.75
69219;BME280;56232;53.384;-2.732;2023-02-17T02:20:26;101087.67;;;11.63;43.52
69219;BME280;56232;53.384;-2.732;2023-02-17T02:22:50;101090.84;;;11.37;43.64
69219;BME280;56232;53.384;-2.732;2023-02-17T02:25:12;101093.13;;;10.82;43.90
69219;BME280;56232;53.384;-2.732;2023-02-17T02:27:41;101095.03;;;11.27;43.83
69219;BME280;56232;53.384;-2.732;2023-02-17T02:30:04;101095.32;;;11.20;43.79
69219;BME280;56232;53.384;-2.732;2023-02-17T02:32:33;101098.10;;;11.11;43.90
69219;BME280;56232;53.384;-2.732;2023-02-17T02:34:49;101086.36;;;11.15;43.79
69219;BME280;56232;53.384;-2.732;2023-02-17T02:37:15;101098.46;;;11.10;43.81
69219;BME280;56232;53.384;-2.732;2023-02-17T02:39:39;101105.89;;;11.03;43.83
69219;BME280;56232;53.384;-2.732;2023-02-17T02:42:05;101099.59;;;11.45;44.02
69219;BME280;56232;53.384;-2.732;2023-02-17T02:44:28;101092.08;;;12.02;44.02
69219;BME280;56232;53.384;-2.732;2023-02-17T02:46:56;101082.66;;;11.81;44.01
69219;BME280;56232;53.384;-2.732;2023-02-17T02:49:19;101078.18;;;11.13;44.22
69219;BME280;56232;53.384;-2.732;2023-02-17T02:51:48;101082.94;;;11.76;44.47
69219;BME280;56232;53.384;-2.732;2023-02-17T02:54:17;101073.78;;;11.27;43.97
69219;BME280;56232;53.384;-2.732;2023-02-17T02:56:45;101073.21;;;11.73;44.23
69219;BME280;56232;53.384;-2.732;2023-02-17T02:59:09;101070.35;;;11.02;44.36
69219;BME280;56232;53.384;-2.732;2023-02-17T03:01:38;101072.29;;;10.65;44.16
69219;BME280;56232;53.384;-2.732;2023-02-17T03:04:00;101065.40;;;11.01;44.39
69219;BME280;56232;53.384;-2.732;2023-02-17T03:06:24;101061.09;;;10.98;44.42
69219;BME280;56232;53.384;-2.732;2023-02-17T03:08:49;101052.53;;;11.40;44.50
69219;BME280;56232;53.384;-2.732;2023-02-17T03:11:10;101053.35;;;10.39;44.49
69219;BME280;56232;53.384;-2.732;2023-02-17T03:13:36;101046.84;;;10.89;44.66
69219;BME280;56232;53.384;-2.732;2023-02-17T03:16:01;101041.55;;;10.95;44.53
69219;BME280;56232;53.384;-2.732;2023-02-17T03:18:27;101040.28;;;10.51;44.66
69219;BME280;56232;53.384;-2.732;2023-02-17T03:20:55;101043.79;;;10.70;44.43
69219;BME280;56232;53.384;-2.732;2023-02-17T03:23:18;101035.34;;;10.75;44.25
69219;BME280;56232;53.384;-2.732;2023-02-17T03:25:44;101035.39;;;11.88;44.19
69219;BME280;56232;53.384;-2.732;2023-02-17T03:28:09;101036.79;;;11.27;44.24
69219;BME280;56232;53.384;-2.732;2023-02-17T03:30:35;101044.86;;;10.77;44.02
69219;BME280;56232;53.384;-2.732;2023-02-17T03:33:00;101043.91;;;11.31;44.07
69219;BME280;56232;53.384;-2.732;2023-02-17T03:35:26;101039.71;;;10.95;44.18
69219;BME280;56232;53.384;-2.732;2023-02-17T03:37:51;101035.66;;;11.64;43.88
69219;BME280;56232;53.384;-2.732;2023-02-17T03:40:17;101031.65;;;11.07;43.78
69219;BME280;56232;53.384;-2.732;2023-02-17T03:42:43;101026.47;;;11.52;44.03
69219;BME280;56232;53.384;-2.732;2023-02-17T03:45:09;101012.81;;;11.07;43.60
69219;BME280;56232;53.384;-2.732;2023-02-17T03:47:33;101017.02;;;10.96;44.02
69219;BME280;56232;53.384;-2.732;2023-02-17T03:49:59;101022.27;;;11.07;44.03
69219;BME280;56232;53.384;-2.732;2023-02-17T03:52:25;101016.51;;;11.60;43.65
69219;BME280;56232;53.384;-2.732;2023-02-17T03:54:50;101019.84;;;11.43;43.69
69219;BME280;56232;53.384;-2.732;2023-02-17T03:57:16;101021.16;;;11.39;43.91
69219;BME280;56232;53.384;-2.732;2023-02-17T03:59:48;101013.28;;;11.44;43.78
69219;BME280;56232;53.384;-2.732;2023-02-17T04:02:07;101009.90;;;11.01;43.88
69219;BME280;56232;53.384;-2.732;2023-02-17T04:04:34;101011.39;;;10.99;43.82
69219;BME280;56232;53.384;-2.732;2023-02-17T04:06:59;101011.41;;;11.50;43.96
69219;BME280;56232;53.384;-2.732;2023-02-17T04:09:24;101008.18;;;11.63;43.82
69219;BME280;56232;53.384;-2.732;2023-02-17T04:11:50;101004.69;;;11.04;43.90
69219;BME280;56232;53.384;-2.732;2023-02-17T04:14:16;101012.15;;;11.13;43.64
69219;BME280;56232;53.384;-2.732;2023-02-17T04:16:41;101017.30;;;11.08;43.79
69219;BME280;56232;53.384;-2.732;2023-02-17T04:19:06;101011.06;;;11.08;43.59
69219;BME280;56232;53.384;-2.732;2023-02-17T04:21:32;101009.58;;;11.44;43.87
69219;BME280;56232;53.384;-2.732;2023-02-17T04:23:59;101004.29;;;10.88;43.86
69219;BME280;56232;53.384;-2.732;2023-02-17T04:26:23;101000.01;;;11.35;44.11
69219;BME280;56232;53.384;-2.732;2023-02-17T04:28:49;100995.18;;;10.71;44.34
69219;BME280;56232;53.384;-2.732;2023-02-17T04:31:15;100993.17;;;11.49;44.57
69219;BME280;56232;53.384;-2.732;2023-02-17T04:33:40;100994.18;;;10.63;44.88
69219;BME280;56232;53.384;-2.732;2023-02-17T04:36:06;100991.12;;;11.02;45.21
69219;BME280;56232;53.384;-2.732;2023-02-17T04:38:32;100986.89;;;11.05;45.15
69219;BME280;56232;53.384;-2.732;2023-02-17T04:40:59;100983.27;;;10.37;45.15
69219;BME280;56232;53.384;-2.732;2023-02-17T04:43:24;100987.13;;;10.83;45.22
69219;BME280;56232;53.384;-2.732;2023-02-17T04:45:48;100982.73;;;10.32;45.16
69219;BME280;56232;53.384;-2.732;2023-02-17T04:48:13;100978.85;;;10.80;45.26
69219;BME280;56232;53.384;-2.732;2023-02-17T04:50:39;100973.61;;;10.17;45.13
69219;BME280;56232;53.384;-2.732;2023-02-17T04:53:05;100968.41;;;10.68;45.23
69219;BME280;56232;53.384;-2.732;2023-02-17T04:55:30;100958.48;;;10.52;45.38
69219;BME280;56232;53.384;-2.732;2023-02-17T04:57:56;100961.82;;;10.41;45.42
69219;BME280;56232;53.384;-2.732;2023-02-17T05:00:22;100969.30;;;10.57;45.36
69219;BME280;56232;53.384;-2.732;2023-02-17T05:02:47;100978.22;;;10.61;45.39
69219;BME280;56232;53.384;-2.732;2023-02-17T05:05:13;100979.44;;;10.19;45.32
69219;BME280;56232;53.384;-2.732;2023-02-17T05:07:38;100980.47;;;11.07;44.98
69219;BME280;56232;53.384;-2.732;2023-02-17T05:10:04;100985.81;;;11.22;44.58
69219;BME280;56232;53.384;-2.732;2023-02-17T05:12:30;100990.65;;;11.33;44.50
69219;BME280;56232;53.384;-2.732;2023-02-17T05:14:55;100992.75;;;10.79;44.33
69219;BME280;56232;53.384;-2.732;2023-02-17T05:17:21;100990.95;;;11.35;44.08
69219;BME280;56232;53.384;-2.732;2023-02-17T05:19:46;100981.57;;;10.71;44.33
69219;BME280;56232;53.384;-2.732;2023-02-17T05:22:12;100965.60;;;10.29;44.27
69219;BME280;56232;53.384;-2.732;2023-02-17T05:24:37;100986.68;;;10.34;44.03
69219;BME280;56232;53.384;-2.732;2023-02-17T05:27:08;101003.57;;;11.51;44.38
69219;BME280;56232;53.384;-2.732;2023-02-17T05:29:28;101020.03;;;11.10;44.24
69219;BME280;56232;53.384;-2.732;2023-02-17T05:31:54;101034.26;;;10.81;44.20
69219;BME280;56232;53.384;-2.732;2023-02-17T05:34:20;101031.26;;;10.95;44.02
69219;BME280;56232;53.384;-2.732;2023-02-17T05:36:45;101036.92;;;11.09;43.64
69219;BME280;56232;53.384;-2.732;2023-02-17T05:39:11;101038.82;;;11.13;43.60
69219;BME280;56232;53.384;-2.732;2023-02-17T05:41:37;101045.97;;;12.16;43.64
69219;BME280;56232;53.384;-2.732;2023-02-17T05:44:02;101041.26;;;10.95;43.88
69219;BME280;56232;53.384;-2.732;2023-02-17T05:46:28;101057.31;;;11.67;43.86
69219;BME280;56232;53.384;-2.732;2023-02-17T05:48:53;101055.56;;;11.71;43.61
69219;BME280;56232;53.384;-2.732;2023-02-17T05:51:19;101057.49;;;11.15;43.46
69219;BME280;56232;53.384;-2.732;2023-02-17T05:53:45;101058.52;;;11.63;43.61
69219;BME280;56232;53.384;-2.732;2023-02-17T05:56:10;101057.89;;;11.27;43.67
69219;BME280;56232;53.384;-2.732;2023-02-17T05:58:36;101058.37;;;11.39;43.48
69219;BME280;56232;53.384;-2.732;2023-02-17T06:01:06;101053.84;;;11.47;43.48
69219;BME280;56232;53.384;-2.732;2023-02-17T06:03:27;101065.44;;;11.53;43.45
69219;BME280;56232;53.384;-2.732;2023-02-17T06:05:53;101076.21;;;11.51;43.46
69219;BME280;56232;53.384;-2.732;2023-02-17T06:08:18;101082.49;;;11.42;43.51
69219;BME280;56232;53.384;-2.732;2023-02-17T06:10:44;101079.75;;;11.45;43.41
69219;BME280;56232;53.384;-2.732;2023-02-17T06:13:09;101081.68;;;11.37;43.51
69219;BME280;56232;53.384;-2.732;2023-02-17T06:15:35;101085.27;;;10.95;43.71
69219;BME280;56232;53.384;-2.732;2023-02-17T06:18:01;101089.31;;;11.10;43.79
69219;BME280;56232;53.384;-2.732;2023-02-17T06:20:26;101091.68;;;11.73;43.23
69219;BME280;56232;53.384;-2.732;2023-02-17T06:22:52;101093.74;;;11.65;43.47
69219;BME280;56232;53.384;-2.732;2023-02-17T06:25:18;101087.85;;;10.77;43.61
69219;BME280;56232;53.384;-2.732;2023-02-17T06:27:44;101088.06;;;12.42;43.09
69219;BME280;56232;53.384;-2.732;2023-02-17T06:30:10;101096.28;;;11.80;43.15
69219;BME280;56232;53.384;-2.732;2023-02-17T06:32:35;101087.93;;;11.68;43.35
69219;BME280;56232;53.384;-2.732;2023-02-17T06:35:00;101088.54;;;11.53;43.48
69219;BME280;56232;53.384;-2.732;2023-02-17T06:37:25;101087.39;;;11.98;43.48
69219;BME280;56232;53.384;-2.732;2023-02-17T06:39:51;101090.34;;;11.36;43.58
69219;BME280;56232;53.384;-2.732;2023-02-17T06:42:17;101107.73;;;11.35;43.58
69219;BME280;56232;53.384;-2.732;2023-02-17T06:44:43;101117.09;;;11.82;43.73
69219;BME280;56232;53.384;-2.732;2023-02-17T06:47:08;101115.29;;;11.40;43.71
69219;BME280;56232;53.384;-2.732;2023-02-17T06:49:33;101116.23;;;11.63;43.41
69219;BME280;56232;53.384;-2.732;2023-02-17T06:51:59;101128.65;;;11.76;43.09
69219;BME280;56232;53.384;-2.732;2023-02-17T06:54:25;101129.20;;;11.59;43.18
69219;BME280;56232;53.384;-2.732;2023-02-17T06:56:50;101137.12;;;11.67;43.46
69219;BME280;56232;53.384;-2.732;2023-02-17T06:59:16;101154.99;;;11.80;43.39
69219;BME280;56232;53.384;-2.732;2023-02-17T07:01:42;101156.84;;;11.85;43.16
69219;BME280;56232;53.384;-2.732;2023-02-17T07:04:07;101171.75;;;11.35;43.09
69219;BME280;56232;53.384;-2.732;2023-02-17T07:06:33;101179.72;;;11.83;42.83
69219;BME280;56232;53.384;-2.732;2023-02-17T07:08:59;101182.04;;;11.76;43.06
69219;BME280;56232;53.384;-2.732;2023-02-17T07:11:24;101175.81;;;10.59;43.11
69219;BME280;56232;53.384;-2.732;2023-02-17T07:13:49;101185.67;;;12.22;43.04
69219;BME280;56232;53.384;-2.732;2023-02-17T07:16:15;101191.99;;;11.61;43.15
69219;BME280;56232;53.384;-2.732;2023-02-17T07:18:41;101187.71;;;11.02;43.26
69219;BME280;56232;53.384;-2.732;2023-02-17T07:21:07;101197.16;;;11.99;43.49
69219;BME280;56232;53.384;-2.732;2023-02-17T07:23:32;101204.08;;;11.48;43.56
69219;BME280;56232;53.384;-2.732;2023-02-17T07:26:01;101217.84;;;11.59;43.33
69219;BME280;56232;53.384;-2.732;2023-02-17T07:28:23;101223.71;;;11.55;43.44
69219;BME280;56232;53.384;-2.732;2023-02-17T07:30:49;101219.61;;;11.88;43.51
69219;BME280;56232;53.384;-2.732;2023-02-17T07:33:14;101229.31;;;11.31;43.38
69219;BME280;56232;53.384;-2.732;2023-02-17T07:35:41;101227.82;;;11.89;43.76
69219;BME280;56232;53.384;-2.732;2023-02-17T07:38:06;101228.03;;;11.47;43.91
69219;BME280;56232;53.384;-2.732;2023-02-17T07:40:31;101236.78;;;11.57;43.65
69219;BME280;56232;53.384;-2.732;2023-02-17T07:42:57;101235.25;;;11.10;43.39
69219;BME280;56232;53.384;-2.732;2023-02-17T07:45:22;101237.18;;;11.55;43.42
69219;BME280;56232;53.384;-2.732;2023-02-17T07:47:48;101236.85;;;11.60;43.38
69219;BME280;56232;53.384;-2.732;2023-02-17T07:50:14;101235.34;;;11.66;43.32
69219;BME280;56232;53.384;-2.732;2023-02-17T07:52:39;101242.05;;;11.72;43.22
69219;BME280;56232;53.384;-2.732;2023-02-17T07:55:05;101245.08;;;11.69;43.43
69219;BME280;56232;53.384;-2.732;2023-02-17T07:57:31;101255.14;;;11.78;43.31
69219;BME280;56232;53.384;-2.732;2023-02-17T07:59:56;101256.90;;;11.94;43.24
69219;BME280;56232;53.384;-2.732;2023-02-17T08:02:27;101263.28;;;10.98;43.01
69219;BME280;56232;53.384;-2.732;2023-02-17T08:04:48;101270.91;;;12.13;42.89
69219;BME280;56232;53.384;-2.732;2023-02-17T08:07:13;101263.92;;;12.22;42.91
69219;BME280;56232;53.384;-2.732;2023-02-17T08:09:39;101268.52;;;12.23;42.41
69219;BME280;56232;53.384;-2.732;2023-02-17T08:12:07;101265.07;;;12.07;42.60
69219;BME280;56232;53.384;-2.732;2023-02-17T08:14:31;101266.46;;;11.99;42.94
69219;BME280;56232;53.384;-2.732;2023-02-17T08:16:56;101261.32;;;11.64;42.90
69219;BME280;56232;53.384;-2.732;2023-02-17T08:19:22;101258.38;;;12.71;42.81
69219;BME280;56232;53.384;-2.732;2023-02-17T08:21:48;101256.64;;;12.18;42.79
69219;BME280;56232;53.384;-2.732;2023-02-17T08:24:14;101257.07;;;12.64;43.07
69219;BME280;56232;53.384;-2.732;2023-02-17T08:26:38;101259.97;;;12.12;43.05
69219;BME280;56232;53.384;-2.732;2023-02-17T08:29:04;101265.02;;;12.07;43.02
69219;BME280;56232;53.384;-2.732;2023-02-17T08:31:32;101256.00;;;12.32;42.95
69219;BME280;56232;53.384;-2.732;2023-02-17T08:33:55;101258.38;;;12.59;42.58
69219;BME280;56232;53.384;-2.732;2023-02-17T08:36:22;101255.48;;;12.35;42.44
69219;BME280;56232;53.384;-2.732;2023-02-17T08:38:47;101251.82;;;12.92;42.18
69219;BME280;56232;53.384;-2.732;2023-02-17T08:41:13;101256.19;;;13.02;42.05
69219;BME280;56232;53.384;-2.732;2023-02-17T08:43:38;101253.49;;;11.88;41.95
69219;BME280;56232;53.384;-2.732;2023-02-17T08:46:06;101260.25;;;13.04;42.10
69219;BME280;56232;53.384;-2.732;2023-02-17T08:48:29;101258.43;;;13.22;42.03
69219;BME280;56232;53.384;-2.732;2023-02-17T08:50:55;101264.90;;;13.70;41.47
69219;BME280;56232;53.384;-2.732;2023-02-17T08:53:20;101268.91;;;12.55;41.66
69219;BME280;56232;53.384;-2.732;2023-02-17T08:55:46;101277.33;;;13.71;41.73
69219;BME280;56232;53.384;-2.732;2023-02-17T08:58:11;101284.63;;;13.47;42.00
69219;BME280;56232;53.384;-2.732;2023-02-17T09:00:37;101287.50;;;12.83;42.27
69219;BME280;56232;53.384;-2.732;2023-02-17T09:03:03;101297.96;;;12.23;42.42
69219;BME280;56232;53.384;-2.732;2023-02-17T09:05:28;101288.84;;;12.69;42.42
69219;BME280;56232;53.384;-2.732;2023-02-17T09:07:54;101290.82;;;12.10;42.64
69219;BME280;56232;53.384;-2.732;2023-02-17T09:10:20;101295.57;;;13.13;42.54
69219;BME280;56232;53.384;-2.732;2023-02-17T09:12:45;101290.97;;;12.97;42.58
69219;BME280;56232;53.384;-2.732;2023-02-17T09:15:11;101292.54;;;12.86;42.75
69219;BME280;56232;53.384;-2.732;2023-02-17T09:17:38;101292.86;;;12.45;42.71
69219;BME280;56232;53.384;-2.732;2023-02-17T09:20:02;101295.71;;;11.91;42.92
69219;BME280;56232;53.384;-2.732;2023-02-17T09:22:28;101290.04;;;13.18;42.88
69219;BME280;56232;53.384;-2.732;2023-02-17T09:24:54;101288.66;;;13.28;42.47
69219;BME280;56232;53.384;-2.732;2023-02-17T09:27:19;101294.15;;;12.42;42.20
69219;BME280;56232;53.384;-2.732;2023-02-17T09:29:45;101296.31;;;13.50;42.38
69219;BME280;56232;53.384;-2.732;2023-02-17T09:32:10;101297.33;;;12.45;42.22
69219;BME280;56232;53.384;-2.732;2023-02-17T09:34:37;101287.12;;;12.80;41.92
69219;BME280;56232;53.384;-2.732;2023-02-17T09:37:01;101296.55;;;13.31;40.88
69219;BME280;56232;53.384;-2.732;2023-02-17T09:39:27;101290.91;;;13.66;40.19
69219;BME280;56232;53.384;-2.732;2023-02-17T09:41:53;101306.70;;;13.97;40.41
69219;BME280;56232;53.384;-2.732;2023-02-17T09:44:21;101312.66;;;13.97;40.74
69219;BME280;56232;53.384;-2.732;2023-02-17T09:46:51;101320.12;;;13.67;40.26
69219;BME280;56232;53.384;-2.732;2023-02-17T09:49:13;101318.62;;;13.59;40.74
69219;BME280;56232;53.384;-2.732;2023-02-17T09:51:40;101320.94;;;13.69;40.57
69219;BME280;56232;53.384;-2.732;2023-02-17T09:54:05;101330.28;;;13.85;40.81
69219;BME280;56232;53.384;-2.732;2023-02-17T09:56:31;101329.99;;;13.98;40.36
69219;BME280;56232;53.384;-2.732;2023-02-17T09:58:53;101336.67;;;14.33;40.07
69219;BME280;56232;53.384;-2.732;2023-02-17T10:01:20;101336.64;;;14.63;39.39
69219;BME280;56232;53.384;-2.732;2023-02-17T10:03:46;101339.57;;;14.81;39.26
69219;BME280;56232;53.384;-2.732;2023-02-17T10:06:14;101335.32;;;13.99;39.32
69219;BME280;56232;53.384;-2.732;2023-02-17T10:08:39;101334.40;;;14.28;38.97
69219;BME280;56232;53.384;-2.732;2023-02-17T10:11:05;101347.39;;;14.24;39.51
69219;BME280;56232;53.384;-2.732;2023-02-17T10:13:30;101347.88;;;14.86;38.61
69219;BME280;56232;53.384;-2.732;2023-02-17T10:15:52;101348.20;;;14.99;37.96
69219;BME280;56232;53.384;-2.732;2023-02-17T10:18:20;101349.75;;;15.39;38.26
69219;BME280;56232;53.384;-2.732;2023-02-17T10:20:48;101358.86;;;15.42;38.29
69219;BME280;56232;53.384;-2.732;2023-02-17T10:23:15;101387.13;;;14.28;38.87
69219;BME280;56232;53.384;-2.732;2023-02-17T10:25:46;101377.13;;;14.72;39.83
69219;BME280;56232;53.384;-2.732;2023-02-17T10:28:02;101387.99;;;14.08;40.35
69219;BME280;56232;53.384;-2.732;2023-02-17T10:30:31;101401.77;;;14.36;40.75
69219;BME280;56232;53.384;-2.732;2023-02-17T10:32:59;101406.43;;;13.45;41.09
69219;BME280;56232;53.384;-2.732;2023-02-17T10:35:21;101390.44;;;13.66;40.60
69219;BME280;56232;53.384;-2.732;2023-02-17T10:37:46;101385.17;;;13.38;41.35
69219;BME280;56232;53.384;-2.732;2023-02-17T10:40:12;101381.79;;;13.23;42.13
69219;BME280;56232;53.384;-2.732;2023-02-17T10:42:35;101382.06;;;14.16;42.15
69219;BME280;56232;53.384;-2.732;2023-02-17T10:45:01;101372.84;;;12.69;42.28
69219;BME280;56232;53.384;-2.732;2023-02-17T10:47:23;101377.31;;;13.23;42.46
69219;BME280;56232;53.384;-2.732;2023-02-17T10:49:50;101384.76;;;13.43;41.85
69219;BME280;56232;53.384;-2.732;2023-02-17T10:52:16;101377.53;;;13.43;42.61
69219;BME280;56232;53.384;-2.732;2023-02-17T10:54:45;101392.02;;;13.47;42.92
69219;BME280;56232;53.384;-2.732;2023-02-17T10:57:08;101407.00;;;13.52;42.36
69219;BME280;56232;53.384;-2.732;2023-02-17T10:59:33;101418.23;;;13.28;42.49
69219;BME280;56232;53.384;-2.732;2023-02-17T11:02:13;101420.36;;;14.32;42.59
69219;BME280;56232;53.384;-2.732;2023-02-17T11:04:22;101422.41;;;13.20;42.60
69219;BME280;56232;53.384;-2.732;2023-02-17T11:06:49;101424.32;;;13.13;42.35
69219;BME280;56232;53.384;-2.732;2023-02-17T11:09:18;101441.52;;;14.14;42.01
69219;BME280;56232;53.384;-2.732;2023-02-17T11:11:58;101446.14;;;13.52;41.97
69219;BME280;56232;53.384;-2.732;2023-02-17T11:14:12;101441.37;;;13.57;41.86
69219;BME280;56232;53.384;-2.732;2023-02-17T11:16:34;101446.45;;;13.67;42.86
69219;BME280;56232;53.384;-2.732;2023-02-17T11:18:55;101437.86;;;13.02;42.65
69219;BME280;56232;53.384;-2.732;2023-02-17T11:21:21;101434.70;;;13.40;42.49
69219;BME280;56232;53.384;-2.732;2023-02-17T11:23:49;101434.50;;;14.01;41.64
69219;BME280;56232;53.384;-2.732;2023-02-17T11:26:16;101440.99;;;14.56;41.55
69219;BME280;56232;53.384;-2.732;2023-02-17T11:28:37;101452.18;;;14.16;41.74
69219;BME280;56232;53.384;-2.732;2023-02-17T11:31:03;101446.79;;;14.40;42.43
69219;BME280;56232;53.384;-2.732;2023-02-17T11:33:32;101445.86;;;13.24;42.32
69219;BME280;56232;53.384;-2.732;2023-02-17T11:35:54;101451.00;;;12.66;42.92
69219;BME280;56232;53.384;-2.732;2023-02-17T11:38:21;101450.89;;;13.13;42.88
69219;BME280;56232;53.384;-2.732;2023-02-17T11:40:51;101466.91;;;12.90;42.80
69219;BME280;56232;53.384;-2.732;2023-02-17T11:43:15;101467.17;;;13.32;42.76
69219;BME280;56232;53.384;-2.732;2023-02-17T11:45:40;101480.06;;;12.38;43.55
69219;BME280;56232;53.384;-2.732;2023-02-17T11:48:13;101480.04;;;12.56;43.66
69219;BME280;56232;53.384;-2.732;2023-02-17T11:50:30;101483.16;;;12.77;44.14
69219;BME280;56232;53.384;-2.732;2023-02-17T11:53:02;101481.92;;;11.99;44.28
69219;BME280;56232;53.384;-2.732;2023-02-17T11:55:22;101485.06;;;12.31;43.16
69219;BME280;56232;53.384;-2.732;2023-02-17T11:57:52;101489.13;;;12.06;43.76
69219;BME280;56232;53.384;-2.732;2023-02-17T12:00:14;101487.32;;;11.58;44.25
69219;BME280;56232;53.384;-2.732;2023-02-17T12:02:47;101481.76;;;11.54;43.40
69219;BME280;56232;53.384;-2.732;2023-02-17T12:05:10;101482.12;;;13.02;42.47
69219;BME280;56232;53.384;-2.732;2023-02-17T12:07:36;101477.09;;;11.69;42.73
69219;BME280;56232;53.384;-2.732;2023-02-17T12:09:57;101470.00;;;11.98;42.40
69219;BME280;56232;53.384;-2.732;2023-02-17T12:12:22;101466.53;;;11.18;43.08
69219;BME280;56232;53.384;-2.732;2023-02-17T12:14:56;101462.25;;;11.80;43.05
69219;BME280;56232;53.384;-2.732;2023-02-17T12:17:14;101454.28;;;12.71;43.05
69219;BME280;56232;53.384;-2.732;2023-02-17T12:19:40;101451.31;;;12.89;42.16
69219;BME280;56232;53.384;-2.732;2023-02-17T12:22:06;101448.91;;;12.78;42.60
69219;BME280;56232;53.384;-2.732;2023-02-17T12:24:33;101438.72;;;12.71;42.42
69219;BME280;56232;53.384;-2.732;2023-02-17T12:26:56;101436.92;;;13.11;42.48
69219;BME280;56232;53.384;-2.732;2023-02-17T12:29:27;101439.93;;;12.69;42.39
69219;BME280;56232;53.384;-2.732;2023-02-17T12:31:53;101448.05;;;11.99;41.62
69219;BME280;56232;53.384;-2.732;2023-02-17T12:34:13;101441.58;;;12.01;42.31